Time;durP1;ratioP1;P1;durP2;ratioP2;P2;SDS_P1;SDS_P2;PMS_P1;PMS_P2;Temp;Humidity;BMP_temperature;BMP_pressure;BME280_temperature;BME280_humidity;BME280_pressure;Samples;Min_cycle;Max_cycle;Signal;HPM_P1;HPM_P2
2020/12/22 00:04:03;;;;;;;1.48;1.38;;;;;;;10.38;87.42;99690.94;8483973;33;20512;-74
2020/12/22 00:09:06;;;;;;;1.40;1.30;;;;;;;10.48;87.27;99680.41;8481448;33;20160;-74
2020/12/22 00:14:08;;;;;;;2.38;1.30;;;;;;;10.54;87.34;99663.88;8475982;33;20141;-73
2020/12/22 00:19:13;;;;;;;1.50;1.40;;;;;;;10.63;87.35;99652.47;8474021;33;20458;-73
2020/12/22 00:24:16;;;;;;;1.40;1.10;;;;;;;10.60;87.36;99666.06;8474566;33;20479;-73
2020/12/22 00:29:19;;;;;;;1.38;1.27;;;;;;;10.73;87.12;99665.13;8474309;33;20477;-74
2020/12/22 00:34:22;;;;;;;1.67;1.58;;;;;;;10.74;87.18;99651.63;8473519;33;20416;-73
2020/12/22 00:39:25;;;;;;;1.40;1.30;;;;;;;10.84;87.19;99641.06;8457970;33;20470;-72
2020/12/22 00:44:27;;;;;;;1.50;1.40;;;;;;;10.83;87.59;99632.22;8474381;33;20144;-73
2020/12/22 00:49:30;;;;;;;1.50;1.40;;;;;;;10.93;87.81;99628.78;8472924;33;20566;-73
2020/12/22 00:54:33;;;;;;;1.35;1.27;;;;;;;11.02;87.56;99628.03;8450776;33;20865;-73
2020/12/22 00:59:37;;;;;;;1.30;1.20;;;;;;;11.15;87.37;99623.41;8472403;33;20303;-73
2020/12/22 01:04:41;;;;;;;1.00;0.98;;;;;;;11.24;87.14;99617.28;8473099;33;20433;-72
2020/12/22 01:09:45;;;;;;;0.80;0.80;;;;;;;11.22;87.51;99602.38;8461285;33;20149;-73
2020/12/22 01:14:48;;;;;;;1.25;1.08;;;;;;;11.21;88.05;99596.16;8456381;33;20506;-72
2020/12/22 01:19:50;;;;;;;1.15;1.05;;;;;;;11.43;87.65;99594.41;8456557;33;20411;-72
2020/12/22 01:24:53;;;;;;;1.20;1.10;;;;;;;11.48;88.28;99602.88;8462487;33;20219;-72
2020/12/22 01:29:56;;;;;;;0.90;0.90;;;;;;;11.64;87.75;99589.94;8460149;33;20503;-73
2020/12/22 01:34:58;;;;;;;1.17;1.08;;;;;;;11.59;88.50;99597.50;8474543;33;20429;-73
2020/12/22 01:40:01;;;;;;;1.65;1.48;;;;;;;11.49;88.83;99597.44;8465994;33;20184;-73
2020/12/22 01:45:04;;;;;;;1.95;1.80;;;;;;;11.68;88.22;99579.81;8457050;33;21332;-72
2020/12/22 01:50:06;;;;;;;1.73;1.63;;;;;;;11.89;87.92;99580.72;8461134;33;20410;-72
2020/12/22 01:55:09;;;;;;;1.13;0.98;;;;;;;11.78;88.08;99591.44;8471351;33;20319;-72
2020/12/22 02:00:12;;;;;;;2.03;1.38;;;;;;;11.84;88.39;99571.34;8474591;33;20448;-72
2020/12/22 02:05:14;;;;;;;1.52;1.42;;;;;;;11.92;88.45;99564.38;8476218;33;20426;-72
2020/12/22 02:10:19;;;;;;;1.85;1.60;;;;;;;11.96;88.53;99554.28;8479094;33;20456;-71
2020/12/22 02:15:21;;;;;;;2.08;1.88;;;;;;;12.11;88.38;99546.75;8482595;33;20433;-72
2020/12/22 02:20:23;;;;;;;1.58;1.48;;;;;;;12.13;88.55;99545.63;8484870;33;20161;-74
2020/12/22 02:25:26;;;;;;;2.38;2.00;;;;;;;12.15;88.99;99535.66;8485573;33;20176;-72
2020/12/22 02:30:29;;;;;;;2.72;2.15;;;;;;;12.24;89.16;99542.03;8483943;33;20512;-72
2020/12/22 02:35:31;;;;;;;2.63;2.40;;;;;;;12.36;89.25;99519.50;8482419;33;20427;-72
2020/12/22 02:40:34;;;;;;;2.40;2.20;;;;;;;12.32;89.45;99514.59;8477464;33;20195;-72
2020/12/22 02:45:38;;;;;;;2.97;2.55;;;;;;;12.32;89.26;99534.19;8477710;33;21074;-72
2020/12/22 02:50:41;;;;;;;2.33;2.13;;;;;;;12.60;88.37;99516.50;8477149;33;20478;-71
2020/12/22 02:55:45;;;;;;;2.65;2.08;;;;;;;12.48;89.13;99519.41;8477990;33;20157;-72
2020/12/22 03:00:47;;;;;;;4.35;3.17;;;;;;;12.72;88.74;99527.09;8478318;33;20456;-71
2020/12/22 03:05:50;;;;;;;2.63;2.15;;;;;;;12.61;89.23;99511.97;8483497;33;20130;-71
2020/12/22 03:10:54;;;;;;;3.00;2.17;;;;;;;12.62;89.10;99505.66;8485771;33;21047;-71
2020/12/22 03:15:56;;;;;;;3.13;2.83;;;;;;;12.73;89.45;99497.50;8488361;33;20469;-72
2020/12/22 03:20:58;;;;;;;2.90;2.35;;;;;;;12.68;89.29;99486.34;8485677;33;20284;-71
2020/12/22 03:26:02;;;;;;;2.80;2.60;;;;;;;12.66;89.81;99485.63;8483916;33;20973;-71
2020/12/22 03:31:04;;;;;;;3.33;2.53;;;;;;;12.89;88.78;99505.03;8483500;33;20985;-71
2020/12/22 03:36:06;;;;;;;2.83;2.13;;;;;;;12.82;88.69;99501.19;8484107;33;20218;-71
2020/12/22 03:41:10;;;;;;;3.83;3.00;;;;;;;13.04;88.28;99486.69;8482545;33;20514;-73
2020/12/22 03:46:13;;;;;;;1.58;1.48;;;;;;;12.80;89.25;99489.75;8481951;33;20486;-73
2020/12/22 03:51:16;;;;;;;2.97;2.20;;;;;;;12.94;88.78;99493.84;8481428;33;20450;-72
2020/12/22 03:56:19;;;;;;;2.20;1.75;;;;;;;12.90;89.14;99493.28;8480611;33;20911;-72
2020/12/22 04:01:21;;;;;;;2.15;1.90;;;;;;;12.91;88.96;99506.53;8482370;33;20911;-72
2020/12/22 04:06:23;;;;;;;2.65;2.03;;;;;;;12.90;88.95;99491.47;8483387;33;20645;-72
2020/12/22 04:11:27;;;;;;;4.35;2.60;;;;;;;12.94;88.87;99521.50;8486354;33;20513;-72
2020/12/22 04:16:29;;;;;;;3.08;2.63;;;;;;;12.99;89.27;99499.66;8455431;33;21911;-73
2020/12/22 04:21:33;;;;;;;4.93;3.22;;;;;;;13.03;89.31;99474.28;8479083;33;20419;-71
2020/12/22 04:26:37;;;;;;;4.40;2.28;;;;;;;13.10;89.17;99496.84;8479651;33;20499;-72
2020/12/22 04:31:39;;;;;;;6.07;3.13;;;;;;;13.20;88.99;99499.53;8480897;33;21766;-71
2020/12/22 04:36:42;;;;;;;5.50;3.50;;;;;;;13.23;88.90;99509.97;8481791;33;20196;-72
2020/12/22 04:41:47;;;;;;;5.85;4.00;;;;;;;13.33;88.64;99500.13;8479148;33;20522;-71
2020/12/22 04:46:52;;;;;;;5.40;3.67;;;;;;;13.28;88.79;99511.28;8481408;33;20567;-71
2020/12/22 04:51:56;;;;;;;5.53;3.70;;;;;;;13.31;88.88;99511.00;8480752;33;20410;-71
2020/12/22 04:57:08;;;;;;;5.68;3.72;;;;;;;13.43;88.49;99492.91;8478181;33;20298;-70
2020/12/22 05:02:11;;;;;;;5.65;3.90;;;;;;;13.43;88.23;99524.25;8477455;33;20184;-70
2020/12/22 05:07:13;;;;;;;4.07;3.05;;;;;;;13.45;88.53;99500.81;8484351;33;20263;-71
2020/12/22 05:12:17;;;;;;;4.30;3.25;;;;;;;13.65;87.73;99498.97;8484465;33;20991;-71
2020/12/22 05:17:19;;;;;;;4.53;3.72;;;;;;;13.66;87.73;99488.09;8479659;33;21010;-71
2020/12/22 05:22:22;;;;;;;7.05;3.83;;;;;;;13.67;87.86;99513.09;8478701;33;20395;-71
2020/12/22 05:27:26;;;;;;;5.45;3.53;;;;;;;13.73;87.94;99523.25;8479999;33;20619;-71
2020/12/22 05:32:30;;;;;;;7.15;5.03;;;;;;;13.82;87.86;99535.78;8480956;33;20633;-71
2020/12/22 05:37:41;;;;;;;7.60;4.60;;;;;;;13.93;87.02;99527.59;8481332;33;20419;-71
2020/12/22 05:42:47;;;;;;;8.32;5.25;;;;;;;13.84;87.26;99541.03;8486231;33;22046;-71
2020/12/22 05:47:54;;;;;;;8.05;6.03;;;;;;;13.92;86.45;99539.31;8484213;33;20184;-71
2020/12/22 05:52:57;;;;;;;7.78;4.32;;;;;;;13.94;86.27;99555.28;8484054;33;20416;-70
2020/12/22 05:58:08;;;;;;;5.43;3.85;;;;;;;13.97;85.87;99538.88;8485233;33;20709;-71
2020/12/22 06:03:13;;;;;;;7.57;5.70;;;;;;;14.06;85.84;99564.03;8486412;33;20145;-71
2020/12/22 06:08:16;;;;;;;6.20;5.28;;;;;;;14.05;86.51;99541.69;8488743;33;20423;-72
2020/12/22 06:13:22;;;;;;;6.53;4.03;;;;;;;13.82;88.22;99556.44;8485497;33;20171;-72
2020/12/22 06:18:24;;;;;;;9.43;6.03;;;;;;;13.92;87.99;99566.16;8487901;33;20125;-74
2020/12/22 06:23:27;;;;;;;9.55;6.55;;;;;;;13.76;88.63;99563.22;8486189;33;20723;-72
2020/12/22 06:28:31;;;;;;;6.53;5.15;;;;;;;13.81;88.78;99589.66;8486127;33;20440;-74
2020/12/22 06:33:36;;;;;;;4.60;3.42;;;;;;;13.58;89.92;99576.53;8486133;33;20454;-74
2020/12/22 06:38:54;;;;;;;4.40;2.80;;;;;;;13.63;90.15;99562.66;8486938;33;20179;-73
2020/12/22 06:44:21;;;;;;;3.72;3.08;;;;;;;13.71;89.83;99598.56;8491581;33;20483;-73
2020/12/22 06:49:51;;;;;;;2.78;2.58;;;;;;;13.56;89.85;99573.13;8486923;33;20181;-74
2020/12/22 06:54:55;;;;;;;2.50;2.30;;;;;;;13.53;89.78;99590.34;8478945;33;20507;-73
2020/12/22 06:59:58;;;;;;;3.50;2.50;;;;;;;13.41;90.03;99587.94;8485716;33;20200;-73
2020/12/22 07:05:06;;;;;;;3.28;2.97;;;;;;;13.40;90.59;99591.63;8485556;33;20215;-73
2020/12/22 07:10:11;;;;;;;4.43;3.65;;;;;;;13.61;90.33;99612.97;8492077;33;21087;-73
2020/12/22 07:15:14;;;;;;;4.28;3.55;;;;;;;13.54;90.51;99616.19;8503601;33;20407;-72
2020/12/22 07:20:17;;;;;;;3.92;2.95;;;;;;;13.62;90.38;99636.13;8487722;33;20245;-73
2020/12/22 07:25:20;;;;;;;5.47;3.33;;;;;;;13.66;90.49;99618.75;8484714;33;20183;-71
2020/12/22 07:30:23;;;;;;;4.55;3.83;;;;;;;13.74;90.27;99624.28;8483852;33;20446;-71
2020/12/22 07:35:26;;;;;;;3.88;3.35;;;;;;;13.63;90.17;99633.31;8483768;33;20408;-71
2020/12/22 07:40:28;;;;;;;5.68;3.13;;;;;;;13.66;90.10;99638.41;8486260;33;20426;-71
2020/12/22 07:45:32;;;;;;;5.03;3.03;;;;;;;13.66;90.40;99659.88;8453386;33;20436;-71
2020/12/22 07:50:35;;;;;;;4.40;3.33;;;;;;;13.81;89.79;99651.41;8431508;33;20142;-72
2020/12/22 07:55:39;;;;;;;2.25;1.83;;;;;;;13.54;90.53;99696.69;8441130;33;20543;-71
2020/12/22 08:00:43;;;;;;;2.78;1.80;;;;;;;13.50;90.47;99710.56;8440141;33;21685;-72
2020/12/22 08:05:59;;;;;;;2.42;1.50;;;;;;;13.60;90.22;99713.25;8432397;33;20271;-71
2020/12/22 08:11:01;;;;;;;1.92;1.48;;;;;;;13.69;89.74;99715.97;8436290;34;20533;-72
2020/12/22 08:16:05;;;;;;;3.22;2.33;;;;;;;13.58;90.41;99716.09;8446637;33;20627;-72
2020/12/22 08:21:10;;;;;;;2.47;2.10;;;;;;;13.71;89.60;99723.84;8437633;34;20403;-71
2020/12/22 08:26:17;;;;;;;2.65;1.40;;;;;;;13.48;89.93;99710.69;8438721;33;20197;-72
2020/12/22 08:31:34;;;;;;;3.20;1.92;;;;;;;13.78;89.17;99715.09;8409877;34;20445;-70
2020/12/22 08:36:37;;;;;;;2.63;1.65;;;;;;;13.64;89.30;99742.38;8428258;33;20421;-70
2020/12/22 08:41:40;;;;;;;2.22;1.80;;;;;;;13.76;89.03;99726.97;8429327;34;21001;-71
2020/12/22 08:46:45;;;;;;;2.90;1.63;;;;;;;13.85;88.23;99749.44;8435718;33;21003;-70
2020/12/22 08:51:49;;;;;;;2.30;1.70;;;;;;;13.76;88.64;99768.09;8439219;34;20508;-70
2020/12/22 08:56:51;;;;;;;2.13;1.58;;;;;;;13.64;89.97;99769.19;8444232;33;20173;-73
2020/12/22 09:01:54;;;;;;;2.53;1.23;;;;;;;13.43;91.02;99763.06;8420468;34;20229;-73
2020/12/22 09:06:58;;;;;;;2.33;1.30;;;;;;;13.66;91.22;99793.25;8445248;33;20441;-72
2020/12/22 09:12:05;;;;;;;1.73;1.45;;;;;;;13.54;91.62;99803.22;8474517;33;20867;-71
2020/12/22 09:17:09;;;;;;;3.28;2.20;;;;;;;13.70;90.78;99795.50;8501170;33;20196;-71
2020/12/22 09:22:15;;;;;;;4.80;3.22;;;;;;;13.73;90.50;99818.53;8498508;33;20308;-70
2020/12/22 09:27:17;;;;;;;4.25;3.47;;;;;;;13.64;90.53;99801.41;8500591;33;20505;-73
2020/12/22 09:32:20;;;;;;;6.03;3.70;;;;;;;13.75;90.15;99820.09;8499105;33;20231;-73
2020/12/22 09:37:25;;;;;;;4.78;3.17;;;;;;;13.74;89.79;99823.78;8503922;33;20474;-73
2020/12/22 09:42:28;;;;;;;4.93;2.47;;;;;;;13.45;90.14;99863.06;8504743;33;20267;-73
2020/12/22 09:47:31;;;;;;;3.08;2.38;;;;;;;13.31;89.50;99824.88;8501813;33;20481;-73
2020/12/22 09:52:33;;;;;;;3.58;1.80;;;;;;;13.37;89.10;99839.56;8477967;33;20439;-71
2020/12/22 09:57:35;;;;;;;2.03;1.42;;;;;;;13.50;89.04;99836.69;8445219;33;20189;-72
2020/12/22 10:02:39;;;;;;;3.00;1.83;;;;;;;13.30;89.09;99849.13;8446888;34;21184;-72
2020/12/22 10:07:41;;;;;;;3.15;2.17;;;;;;;13.29;88.68;99842.06;8450167;33;20428;-71
2020/12/22 10:12:44;;;;;;;1.58;1.45;;;;;;;13.47;88.38;99845.00;8452707;34;20142;-72
2020/12/22 10:17:48;;;;;;;4.13;2.38;;;;;;;13.74;88.50;99861.34;8453292;33;21348;-71
2020/12/22 10:22:50;;;;;;;3.70;2.10;;;;;;;13.88;87.53;99862.81;8454345;34;20186;-71
2020/12/22 10:27:53;;;;;;;3.42;2.15;;;;;;;13.87;86.76;99858.41;8449143;33;21042;-71
2020/12/22 10:32:56;;;;;;;3.40;2.17;;;;;;;14.27;86.16;99883.56;8454450;33;20422;-71
2020/12/22 10:37:58;;;;;;;3.80;2.25;;;;;;;14.43;85.36;99873.13;8508631;33;20238;-70
2020/12/22 10:43:01;;;;;;;2.25;1.90;;;;;;;14.16;85.81;99884.53;8500859;33;20196;-70
2020/12/22 10:48:06;;;;;;;3.47;2.40;;;;;;;14.17;85.82;99886.22;8510912;33;20448;-73
2020/12/22 10:53:08;;;;;;;3.38;2.00;;;;;;;14.17;84.75;99905.84;8497716;33;20406;-72
2020/12/22 10:58:11;;;;;;;2.58;2.15;;;;;;;14.39;84.37;99893.19;8498898;33;20407;-70
2020/12/22 11:03:18;;;;;;;0.82;0.82;;;;;;;14.05;82.95;99906.97;8507032;33;20141;-71
2020/12/22 11:08:22;;;;;;;3.80;1.58;;;;;;;14.34;82.31;99911.56;8507671;33;21334;-71
2020/12/22 11:13:24;;;;;;;2.10;1.40;;;;;;;14.46;81.92;99899.72;8506290;33;20433;-71
2020/12/22 11:18:28;;;;;;;2.55;1.52;;;;;;;14.73;81.05;99925.13;8496741;33;21220;-73
2020/12/22 11:23:30;;;;;;;1.55;1.23;;;;;;;14.43;81.27;99934.94;8491659;33;20438;-72
2020/12/22 11:28:32;;;;;;;1.48;1.02;;;;;;;14.19;80.87;99930.75;8491951;33;20145;-71
2020/12/22 11:33:35;;;;;;;1.83;1.20;;;;;;;13.84;82.79;99947.31;8492481;33;20185;-71
2020/12/22 11:38:39;;;;;;;3.20;1.30;;;;;;;13.73;83.39;99958.97;8490571;33;20137;-71
2020/12/22 11:43:42;;;;;;;3.88;1.13;;;;;;;13.67;83.38;99964.88;8489531;33;20956;-71
2020/12/22 11:48:45;;;;;;;1.80;1.13;;;;;;;13.58;84.02;99973.75;8488664;33;20144;-71
2020/12/22 11:53:48;;;;;;;1.20;1.10;;;;;;;13.73;84.67;99988.50;8494246;33;20953;-72
2020/12/22 11:58:51;;;;;;;1.83;1.48;;;;;;;13.77;84.68;99981.91;8503858;33;20184;-71
2020/12/22 12:03:55;;;;;;;1.40;1.17;;;;;;;13.65;83.72;99982.09;8502041;33;20327;-71
2020/12/22 12:08:57;;;;;;;2.40;1.48;;;;;;;13.59;84.06;99988.00;8502381;33;20880;-70
2020/12/22 12:13:59;;;;;;;4.13;1.90;;;;;;;13.81;83.57;99987.84;8502201;33;21428;-71
2020/12/22 12:19:04;;;;;;;2.72;1.65;;;;;;;13.75;83.76;99991.91;8504825;33;20420;-72
2020/12/22 12:24:07;;;;;;;1.77;1.65;;;;;;;13.69;84.04;100018.44;8504584;33;20420;-72
2020/12/22 12:29:09;;;;;;;5.55;2.00;;;;;;;13.64;84.34;100013.47;8502255;33;20206;-72
2020/12/22 12:34:13;;;;;;;3.30;1.80;;;;;;;13.55;85.11;100004.38;8491885;33;22031;-70
2020/12/22 12:39:15;;;;;;;1.63;1.48;;;;;;;13.38;86.58;100033.59;8483903;33;21964;-74
2020/12/22 12:44:18;;;;;;;2.78;1.52;;;;;;;12.74;88.58;100029.88;8484527;33;20656;-74
2020/12/22 12:49:21;;;;;;;3.42;1.42;;;;;;;13.12;87.73;100041.97;8459753;33;20453;-74
2020/12/22 12:54:23;;;;;;;2.83;1.65;;;;;;;13.03;88.00;100027.50;8483038;33;20515;-74
2020/12/22 12:59:25;;;;;;;2.80;2.03;;;;;;;13.09;87.89;100042.22;8482989;33;20192;-74
2020/12/22 13:04:29;;;;;;;4.78;2.55;;;;;;;13.13;87.33;100036.47;8487006;33;20461;-74
2020/12/22 13:09:31;;;;;;;5.95;2.85;;;;;;;13.18;86.38;100054.88;8483702;33;20922;-73
2020/12/22 13:14:34;;;;;;;6.00;3.00;;;;;;;13.27;86.39;100054.16;8480313;33;20969;-73
2020/12/22 13:19:37;;;;;;;7.05;3.08;;;;;;;13.32;85.98;100068.00;8480659;33;20413;-73
2020/12/22 13:24:39;;;;;;;7.47;3.25;;;;;;;13.22;86.10;100083.16;8481019;33;20420;-73
2020/12/22 13:29:42;;;;;;;3.45;2.28;;;;;;;13.31;85.43;100077.06;8482361;33;20519;-72
2020/12/22 13:34:45;;;;;;;4.53;2.25;;;;;;;13.27;84.60;100085.47;8481265;33;20904;-73
2020/12/22 13:40:07;;;;;;;4.80;2.50;;;;;;;13.78;84.78;100080.25;8477150;33;20129;-72
2020/12/22 13:45:10;;;;;;;5.35;2.60;;;;;;;13.55;84.28;100100.16;8479820;33;20482;-72
2020/12/22 13:50:13;;;;;;;3.30;1.90;;;;;;;13.45;84.84;100128.72;8476465;33;20191;-71
2020/12/22 13:55:15;;;;;;;3.90;1.80;;;;;;;12.87;86.59;100123.59;8478163;33;20632;-72
2020/12/22 14:00:18;;;;;;;3.47;1.85;;;;;;;12.78;87.14;100140.38;8483034;33;20435;-72
2020/12/22 14:05:21;;;;;;;2.65;1.65;;;;;;;12.78;86.93;100125.19;8484325;33;21351;-72
2020/12/22 14:10:23;;;;;;;4.20;2.00;;;;;;;12.80;87.20;100146.47;8485436;33;20198;-72
2020/12/22 14:15:26;;;;;;;2.25;1.73;;;;;;;12.57;87.72;100151.84;8478100;33;20435;-73
2020/12/22 14:20:38;;;;;;;1.95;1.63;;;;;;;12.54;88.03;100170.84;8477761;33;20524;-73
2020/12/22 14:25:40;;;;;;;3.85;2.28;;;;;;;12.68;87.80;100192.06;8476341;33;20461;-73
2020/12/22 14:30:42;;;;;;;5.00;2.85;;;;;;;12.62;87.37;100195.22;8479761;33;20184;-73
2020/12/22 14:35:46;;;;;;;4.93;3.30;;;;;;;12.67;87.16;100198.41;8481714;33;20894;-73
2020/12/22 14:40:50;;;;;;;6.93;4.15;;;;;;;12.42;87.20;100218.22;8476940;33;20426;-73
2020/12/22 14:45:52;;;;;;;6.22;3.88;;;;;;;12.16;87.63;100220.22;8476228;33;21234;-72
2020/12/22 14:50:55;;;;;;;8.75;4.85;;;;;;;12.30;87.26;100223.66;8477331;33;20147;-73
2020/12/22 14:56:00;;;;;;;7.47;4.30;;;;;;;12.39;87.26;100231.84;8431278;33;20255;-73
2020/12/22 15:01:03;;;;;;;5.43;3.97;;;;;;;12.11;87.13;100256.34;8426064;34;20492;-73
2020/12/22 15:06:06;;;;;;;7.13;3.45;;;;;;;12.11;87.12;100253.66;8425336;34;21387;-73
2020/12/22 15:11:12;;;;;;;5.57;3.50;;;;;;;12.06;86.41;100269.22;8426145;34;20492;-72
2020/12/22 15:16:14;;;;;;;5.05;3.03;;;;;;;11.82;86.59;100283.44;8424673;34;20303;-73
2020/12/22 15:21:18;;;;;;;3.95;2.95;;;;;;;11.47;86.55;100299.38;8424525;34;20417;-73
2020/12/22 15:26:21;;;;;;;5.32;3.13;;;;;;;11.60;86.43;100307.38;8423764;33;21122;-74
2020/12/22 15:31:23;;;;;;;5.55;3.83;;;;;;;11.64;86.17;100301.69;8419778;34;20424;-73
2020/12/22 15:36:26;;;;;;;4.60;3.20;;;;;;;11.55;85.82;100321.94;8415454;34;20152;-72
2020/12/22 15:41:29;;;;;;;3.88;2.90;;;;;;;11.40;85.48;100327.53;8413486;34;20172;-73
2020/12/22 15:46:31;;;;;;;5.65;3.05;;;;;;;11.43;85.68;100325.47;8414660;33;20527;-73
2020/12/22 15:51:34;;;;;;;4.55;3.00;;;;;;;11.61;85.27;100330.50;8412014;34;20951;-73
2020/12/22 15:56:37;;;;;;;5.18;3.30;;;;;;;11.68;85.90;100326.41;8416154;33;20553;-73
2020/12/22 16:01:39;;;;;;;4.55;2.95;;;;;;;11.72;85.62;100335.94;8413921;34;20919;-73
2020/12/22 16:06:44;;;;;;;5.25;2.83;;;;;;;11.74;85.83;100336.69;8410545;33;20948;-73
2020/12/22 16:11:46;;;;;;;6.43;3.72;;;;;;;11.82;85.72;100338.78;8413297;34;20625;-73
2020/12/22 16:16:48;;;;;;;6.82;3.22;;;;;;;11.72;86.10;100328.75;8406859;33;20276;-72
2020/12/22 16:21:52;;;;;;;5.18;3.33;;;;;;;11.73;86.50;100349.19;8407160;34;20411;-72
2020/12/22 16:26:54;;;;;;;5.05;3.42;;;;;;;11.69;85.55;100349.53;8419451;33;20335;-73
2020/12/22 16:32:01;;;;;;;5.68;3.78;;;;;;;11.60;85.76;100345.72;8428863;34;21105;-73
2020/12/22 16:37:05;;;;;;;7.65;4.60;;;;;;;11.74;86.27;100347.38;8431799;33;20386;-73
2020/12/22 16:42:07;;;;;;;11.05;5.90;;;;;;;11.73;86.33;100341.16;8437667;34;20501;-73
2020/12/22 16:47:09;;;;;;;8.27;4.07;;;;;;;11.58;85.99;100343.13;8442037;34;20145;-73
2020/12/22 16:52:13;;;;;;;6.22;4.03;;;;;;;11.30;85.51;100333.53;8441910;34;20449;-71
2020/12/22 16:57:15;;;;;;;5.72;3.58;;;;;;;11.25;85.10;100342.84;8431249;33;21231;-73
2020/12/22 17:02:17;;;;;;;4.47;3.25;;;;;;;11.23;84.83;100340.28;8439989;34;20580;-73
2020/12/22 17:07:20;;;;;;;6.25;3.72;;;;;;;11.15;85.07;100347.13;8452233;33;20420;-73
2020/12/22 17:12:23;;;;;;;7.22;4.18;;;;;;;11.17;85.04;100354.09;8446828;34;20967;-73
2020/12/22 17:17:25;;;;;;;6.35;4.00;;;;;;;11.17;85.37;100356.75;8440428;33;20894;-71
2020/12/22 17:22:29;;;;;;;4.97;3.08;;;;;;;11.08;85.30;100358.25;8448835;34;20585;-73
2020/12/22 17:27:31;;;;;;;4.72;3.83;;;;;;;11.12;85.70;100364.25;8484183;33;20886;-72
2020/12/22 17:32:33;;;;;;;7.47;3.88;;;;;;;11.01;85.14;100361.47;8493249;33;20144;-72
2020/12/22 17:37:36;;;;;;;7.07;4.72;;;;;;;11.02;85.13;100372.03;8491630;33;20970;-72
2020/12/22 17:42:39;;;;;;;9.60;5.20;;;;;;;11.04;85.26;100369.25;8491247;33;20656;-72
2020/12/22 17:47:41;;;;;;;9.25;4.10;;;;;;;11.07;85.61;100372.56;8489834;33;20425;-72
2020/12/22 17:52:44;;;;;;;7.68;4.75;;;;;;;11.17;85.56;100367.47;8491117;33;20191;-71
2020/12/22 17:57:46;;;;;;;5.78;4.05;;;;;;;11.18;85.75;100366.47;8491582;33;20145;-72
2020/12/22 18:02:49;;;;;;;7.70;4.78;;;;;;;11.24;85.74;100370.53;8485879;33;22042;-72
2020/12/22 18:07:52;;;;;;;8.27;5.37;;;;;;;11.31;86.10;100363.81;8493418;33;20436;-72
2020/12/22 18:12:54;;;;;;;11.40;6.15;;;;;;;11.33;85.97;100376.13;8493092;33;20282;-71
2020/12/22 18:17:57;;;;;;;10.93;6.00;;;;;;;11.27;85.40;100368.53;8495657;33;20187;-72
2020/12/22 18:23:00;;;;;;;10.82;6.18;;;;;;;11.29;85.96;100361.22;8510911;33;20581;-72
2020/12/22 18:28:02;;;;;;;10.35;6.60;;;;;;;11.24;85.33;100357.16;8510994;33;20851;-72
2020/12/22 18:33:05;;;;;;;13.80;7.10;;;;;;;11.15;85.23;100356.00;8511339;33;20441;-71
2020/12/22 18:38:08;;;;;;;13.93;9.15;;;;;;;11.06;84.94;100349.47;8508475;33;20916;-71
2020/12/22 18:43:10;;;;;;;15.60;9.30;;;;;;;11.09;85.67;100343.91;8516828;33;20188;-72
2020/12/22 18:48:13;;;;;;;11.43;6.38;;;;;;;11.01;85.51;100340.06;8511854;33;20674;-72
2020/12/22 18:53:16;;;;;;;13.45;7.63;;;;;;;11.03;86.46;100341.69;8508705;33;20217;-73
2020/12/22 18:58:18;;;;;;;70.35;40.97;;;;;;;11.03;85.75;100362.22;8509804;33;20195;-72
2020/12/22 19:03:21;;;;;;;15.63;9.60;;;;;;;11.00;85.90;100367.78;8504604;33;21972;-73
2020/12/22 19:08:24;;;;;;;18.42;11.77;;;;;;;11.00;85.56;100389.16;8509150;33;20493;-72
2020/12/22 19:13:26;;;;;;;14.02;7.28;;;;;;;10.99;85.87;100372.25;8509681;33;20177;-71
2020/12/22 19:18:29;;;;;;;25.17;15.93;;;;;;;10.97;85.49;100374.19;8509855;33;20168;-72
2020/12/22 19:23:32;;;;;;;12.18;7.40;;;;;;;10.97;85.39;100378.66;8510022;33;20657;-72
2020/12/22 19:28:34;;;;;;;13.77;8.48;;;;;;;11.03;86.12;100388.94;8512950;33;20153;-72
2020/12/22 19:33:37;;;;;;;21.58;11.55;;;;;;;11.14;86.40;100381.03;8508144;33;20560;-71
2020/12/22 19:38:40;;;;;;;16.45;8.98;;;;;;;11.20;86.33;100380.59;8480626;33;20184;-72
2020/12/22 19:43:43;;;;;;;17.85;9.65;;;;;;;11.19;86.52;100384.25;8509479;33;20418;-71
2020/12/22 19:48:46;;;;;;;22.92;11.27;;;;;;;11.20;86.31;100390.47;8527440;33;20460;-71
2020/12/22 19:53:49;;;;;;;26.13;16.42;;;;;;;11.19;86.48;100384.25;8548435;33;20144;-72
2020/12/22 19:58:52;;;;;;;10.15;6.68;;;;;;;11.15;86.36;100372.03;8553985;33;20999;-71
2020/12/22 20:03:54;;;;;;;9.57;5.72;;;;;;;11.15;86.41;100364.03;8562425;33;20417;-71
2020/12/22 20:08:57;;;;;;;10.68;6.00;;;;;;;11.18;86.54;100370.97;8510246;33;20185;-71
2020/12/22 20:14:00;;;;;;;11.32;6.35;;;;;;;11.20;86.49;100383.28;8448968;34;20185;-71
2020/12/22 20:19:03;;;;;;;12.98;7.68;;;;;;;11.18;86.46;100398.56;8454359;33;21015;-71
2020/12/22 20:24:06;;;;;;;13.20;7.88;;;;;;;11.15;86.68;100413.97;8447267;34;20248;-72
2020/12/22 20:29:08;;;;;;;13.25;7.55;;;;;;;11.12;86.57;100409.69;8446757;33;20154;-71
2020/12/22 20:34:11;;;;;;;13.15;7.18;;;;;;;11.20;86.81;100395.81;8446112;34;20434;-71
2020/12/22 20:39:14;;;;;;;15.77;8.63;;;;;;;11.20;86.80;100419.88;8440192;33;20472;-71
2020/12/22 20:44:16;;;;;;;13.80;8.45;;;;;;;11.21;86.84;100430.44;8440506;33;20416;-72
2020/12/22 20:49:18;;;;;;;15.85;10.13;;;;;;;11.22;86.65;100434.00;8487901;33;20265;-72
2020/12/22 20:54:22;;;;;;;12.50;8.40;;;;;;;11.17;86.80;100415.59;8488032;33;20532;-71
2020/12/22 20:59:24;;;;;;;17.00;9.60;;;;;;;11.16;87.26;100396.97;8486979;33;20591;-71
2020/12/22 21:04:26;;;;;;;15.00;9.10;;;;;;;11.13;86.64;100387.34;8490579;33;20217;-71
2020/12/22 21:09:29;;;;;;;14.23;8.55;;;;;;;11.10;86.78;100385.72;8501619;33;20246;-71
2020/12/22 21:14:32;;;;;;;15.48;8.65;;;;;;;11.08;86.89;100405.53;8500491;33;20258;-71
2020/12/22 21:19:34;;;;;;;15.63;9.63;;;;;;;11.07;86.59;100393.97;8501624;33;20446;-69
2020/12/22 21:24:37;;;;;;;19.75;11.60;;;;;;;11.10;86.85;100401.75;8496368;33;20859;-71
2020/12/22 21:29:39;;;;;;;18.95;11.30;;;;;;;11.09;86.64;100391.19;8486748;33;20234;-72
2020/12/22 21:34:42;;;;;;;17.23;10.77;;;;;;;11.09;87.01;100385.84;8488482;33;20514;-71
2020/12/22 21:39:45;;;;;;;16.88;11.55;;;;;;;11.12;86.92;100386.47;8486018;33;21166;-71
2020/12/22 21:44:47;;;;;;;20.75;11.40;;;;;;;11.14;86.75;100386.38;8481201;33;20638;-71
2020/12/22 21:49:50;;;;;;;20.83;12.25;;;;;;;11.15;86.66;100405.97;8483751;33;20500;-71
2020/12/22 21:54:53;;;;;;;35.25;17.38;;;;;;;11.16;86.84;100410.34;8484387;33;20236;-72
2020/12/22 21:59:55;;;;;;;41.47;24.63;;;;;;;11.19;86.59;100402.09;8481588;33;20755;-71
2020/12/22 22:04:58;;;;;;;21.20;12.20;;;;;;;11.18;86.89;100403.91;8477051;33;21020;-71
2020/12/22 22:10:01;;;;;;;19.67;10.98;;;;;;;11.13;86.20;100393.56;8480190;33;20895;-71
2020/12/22 22:15:03;;;;;;;19.17;9.75;;;;;;;11.09;86.36;100380.50;8487015;33;20176;-72
2020/12/22 22:20:06;;;;;;;20.17;10.20;;;;;;;11.04;86.52;100388.81;8486862;33;20451;-71
2020/12/22 22:25:09;;;;;;;17.83;9.55;;;;;;;11.03;86.92;100397.81;8487814;33;20549;-71
2020/12/22 22:30:11;;;;;;;23.70;11.50;;;;;;;11.04;86.47;100390.66;8489174;33;20721;-73
2020/12/22 22:35:14;;;;;;;19.10;10.88;;;;;;;11.01;86.59;100396.22;8503465;33;20414;-73
2020/12/22 22:40:17;;;;;;;18.58;10.18;;;;;;;11.09;86.52;100394.72;8502632;33;20539;-72
2020/12/22 22:45:19;;;;;;;23.00;11.65;;;;;;;11.08;86.54;100376.13;8501775;33;20254;-72
2020/12/22 22:50:21;;;;;;;21.75;10.63;;;;;;;11.06;86.44;100367.34;8500943;33;20192;-72
2020/12/22 22:55:25;;;;;;;21.48;11.10;;;;;;;11.04;86.56;100370.13;8499596;33;20438;-72
2020/12/22 23:00:27;;;;;;;22.73;11.65;;;;;;;11.04;86.44;100369.25;8489753;33;20492;-71
2020/12/22 23:05:29;;;;;;;22.02;12.23;;;;;;;11.03;86.43;100375.59;8488491;33;20203;-72
2020/12/22 23:10:35;;;;;;;21.10;11.25;;;;;;;11.01;86.31;100354.28;8486643;33;20549;-72
2020/12/22 23:15:37;;;;;;;21.30;11.15;;;;;;;10.94;86.03;100354.81;8481642;33;20218;-73
2020/12/22 23:20:40;;;;;;;23.15;11.70;;;;;;;10.85;86.43;100334.91;8487219;33;20436;-72
2020/12/22 23:25:43;;;;;;;23.43;12.30;;;;;;;10.84;86.55;100322.53;8487947;33;20509;-73
2020/12/22 23:30:45;;;;;;;25.65;13.23;;;;;;;10.83;86.47;100313.66;8486744;33;20429;-73
2020/12/22 23:35:48;;;;;;;26.58;12.77;;;;;;;10.83;86.49;100302.97;8486694;33;20615;-73